createdAt,value
2022-08-09T00:00:34.827Z,102049.72
2022-08-09T00:04:05.534Z,102035.56
2022-08-09T00:06:19.619Z,102044.00
2022-08-09T00:08:48.412Z,102043.88
2022-08-09T00:11:24.332Z,102045.72
2022-08-09T00:13:52.452Z,102044.28
2022-08-09T00:16:26.336Z,102054.69
2022-08-09T00:19:10.323Z,102043.13
2022-08-09T00:21:43.273Z,102050.13
2022-08-09T00:24:27.228Z,102049.53
2022-08-09T00:26:55.922Z,102050.53
2022-08-09T00:30:09.879Z,102056.06
2022-08-09T00:32:12.708Z,102052.63
2022-08-09T00:34:39.523Z,102046.25
2022-08-09T00:37:13.085Z,102046.97
2022-08-09T00:40:12.667Z,102043.38
2022-08-09T00:44:13.490Z,102054.50
2022-08-09T00:45:16.272Z,102048.03
2022-08-09T00:47:43.738Z,102046.34
2022-08-09T00:50:14.745Z,102049.91
2022-08-09T00:52:42.368Z,102048.75
2022-08-09T00:55:16.729Z,102047.78
2022-08-09T00:57:59.208Z,102044.06
2022-08-09T01:00:28.473Z,102046.78
2022-08-09T01:03:46.364Z,102046.19
2022-08-09T01:07:00.731Z,102049.16
2022-08-09T01:09:56.953Z,102044.75
2022-08-09T01:12:55.894Z,102051.03
2022-08-09T01:15:37.218Z,102050.59
2022-08-09T01:18:15.276Z,102054.03
2022-08-09T01:21:40.960Z,102051.47
2022-08-09T01:25:12.336Z,102056.63
2022-08-09T01:27:42.609Z,102059.34
2022-08-09T01:30:28.480Z,102055.19
2022-08-09T01:33:03.410Z,102059.16
2022-08-09T01:35:44.630Z,102056.00
2022-08-09T01:38:24.552Z,102064.13
2022-08-09T01:41:05.832Z,102064.25
2022-08-09T01:43:50.272Z,102054.78
2022-08-09T01:46:32.448Z,102060.50
2022-08-09T01:49:12.558Z,102053.38
2022-08-09T01:51:53.708Z,102054.22
2022-08-09T01:54:33.406Z,102053.38
2022-08-09T01:57:11.895Z,102058.06
2022-08-09T01:59:51.748Z,102060.78
2022-08-09T02:02:30.901Z,102063.47
2022-08-09T02:05:15.618Z,102059.88
2022-08-09T02:08:38.808Z,102062.75
2022-08-09T02:10:50.900Z,102064.84
2022-08-09T02:13:26.274Z,102072.44
2022-08-09T02:16:10.153Z,102073.31
2022-08-09T02:18:43.056Z,102069.00
2022-08-09T02:21:22.469Z,102071.44
2022-08-09T02:23:57.570Z,102072.44
2022-08-09T02:26:34.382Z,102076.75
2022-08-09T02:29:20.844Z,102082.03
2022-08-09T02:31:51.355Z,102075.28
2022-08-09T02:34:41.437Z,102073.59
2022-08-09T02:37:24.185Z,102081.22
2022-08-09T02:40:10.937Z,102074.16
2022-08-09T02:42:46.817Z,102083.88
2022-08-09T02:45:37.774Z,102068.28
2022-08-09T02:48:30.701Z,102063.59
2022-08-09T02:51:02.864Z,102071.00
2022-08-09T02:54:00.341Z,102076.28
2022-08-09T02:56:32.748Z,102080.38
2022-08-09T02:59:06.894Z,102079.19
2022-08-09T03:01:43.356Z,102076.75
2022-08-09T03:04:28.993Z,102080.72
2022-08-09T03:07:11.434Z,102074.84
2022-08-09T03:09:54.259Z,102081.97
2022-08-09T03:12:27.478Z,102078.28
2022-08-09T03:14:56.747Z,102081.22
2022-08-09T03:17:27.098Z,102084.34
2022-08-09T03:20:05.370Z,102076.09
2022-08-09T03:22:43.629Z,102081.97
2022-08-09T03:25:26.314Z,102083.81
2022-08-09T03:28:11.406Z,102073.84
2022-08-09T03:30:45.840Z,102081.44
2022-08-09T03:33:19.626Z,102083.03
2022-08-09T03:36:13.035Z,102088.44
2022-08-09T03:38:44.599Z,102081.56
2022-08-09T03:41:14.750Z,102086.25
2022-08-09T03:44:03.341Z,102087.09
2022-08-09T03:46:36.197Z,102089.09
2022-08-09T03:49:07.901Z,102093.41
2022-08-09T03:51:57.277Z,102095.09
2022-08-09T03:54:38.482Z,102082.97
2022-08-09T03:57:18.507Z,102089.22
2022-08-09T03:59:54.736Z,102091.81
2022-08-09T04:02:28.599Z,102090.94
2022-08-09T04:05:05.996Z,102097.81
2022-08-09T04:07:52.749Z,102108.34
2022-08-09T04:10:29.537Z,102101.19
2022-08-09T04:13:11.295Z,102095.25
2022-08-09T04:16:18.894Z,102105.56
2022-08-09T04:18:26.387Z,102105.28
2022-08-09T04:20:58.479Z,102113.13
2022-08-09T04:23:28.186Z,102100.19
2022-08-09T04:25:55.836Z,102104.47
2022-08-09T04:28:36.315Z,102105.06
2022-08-09T04:31:09.740Z,102107.81
2022-08-09T04:33:47.386Z,102106.28
2022-08-09T04:36:27.315Z,102113.47
2022-08-09T04:39:02.315Z,102117.34
2022-08-09T04:41:32.335Z,102110.13
2022-08-09T04:44:11.027Z,102105.72
2022-08-09T04:46:58.137Z,102111.63
2022-08-09T04:49:53.605Z,102114.22
2022-08-09T04:52:29.695Z,102105.88
2022-08-09T04:55:02.004Z,102116.72
2022-08-09T04:57:59.195Z,102114.59
2022-08-09T05:00:18.185Z,102113.91
2022-08-09T05:02:52.507Z,102124.19
2022-08-09T05:05:31.824Z,102130.16
2022-08-09T05:08:10.130Z,102127.41
2022-08-09T05:10:42.066Z,102128.19
2022-08-09T05:13:10.914Z,102134.78
2022-08-09T05:15:38.542Z,102131.81
2022-08-09T05:18:37.604Z,102143.56
2022-08-09T05:20:57.999Z,102140.59
2022-08-09T05:23:55.492Z,102141.06
2022-08-09T05:26:36.087Z,102146.19
2022-08-09T05:29:06.148Z,102145.53
2022-08-09T05:31:44.187Z,102159.81
2022-08-09T05:34:16.567Z,102159.28
2022-08-09T05:36:47.660Z,102167.06
2022-08-09T05:39:28.218Z,102160.69
2022-08-09T05:42:01.678Z,102164.53
2022-08-09T05:44:35.078Z,102156.75
2022-08-09T05:47:05.538Z,102154.25
2022-08-09T05:50:11.149Z,102156.91
2022-08-09T05:52:24.776Z,102164.06
2022-08-09T05:54:52.278Z,102163.91
2022-08-09T05:57:19.445Z,102171.56
2022-08-09T05:59:51.962Z,102175.66
2022-08-09T06:02:18.692Z,102174.88
2022-08-09T06:04:46.247Z,102171.69
2022-08-09T06:07:21.283Z,102170.22
2022-08-09T06:10:01.765Z,102175.81
2022-08-09T06:12:30.652Z,102181.38
2022-08-09T06:15:01.306Z,102189.31
2022-08-09T06:17:39.240Z,102182.91
2022-08-09T06:20:08.856Z,102191.91
2022-08-09T06:22:36.011Z,102194.69
2022-08-09T06:25:04.246Z,102194.06
2022-08-09T06:27:42.231Z,102195.25
2022-08-09T06:30:14.010Z,102194.69
2022-08-09T06:32:59.853Z,102201.97
2022-08-09T06:35:56.455Z,102195.25
2022-08-09T06:38:16.627Z,102200.50
2022-08-09T06:40:43.808Z,102207.88
2022-08-09T06:43:11.513Z,102209.22
2022-08-09T06:46:05.267Z,102214.03
2022-08-09T06:48:31.033Z,102215.56
2022-08-09T06:50:59.996Z,102218.03
2022-08-09T06:53:38.080Z,102215.75
2022-08-09T06:56:09.170Z,102215.44
2022-08-09T07:00:52.759Z,102223.84
2022-08-09T07:01:27.667Z,102224.75
2022-08-09T07:04:11.139Z,102228.31
2022-08-09T07:06:47.511Z,102230.72
2022-08-09T07:09:55.344Z,102233.00
2022-08-09T07:12:06.898Z,102227.72
2022-08-09T07:14:40.752Z,102233.28
2022-08-09T07:17:08.323Z,102226.59
2022-08-09T07:19:38.087Z,102230.69
2022-08-09T07:22:05.004Z,102226.84
2022-08-09T07:24:40.597Z,102222.44
2022-08-09T07:27:26.946Z,102235.41
2022-08-09T07:30:03.376Z,102237.69
2022-08-09T07:32:34.573Z,102239.16
2022-08-09T07:35:07.913Z,102245.72
2022-08-09T07:37:43.360Z,102241.81
2022-08-09T07:40:18.566Z,102245.56
2022-08-09T07:43:01.135Z,102249.16
2022-08-09T07:45:39.179Z,102246.22
2022-08-09T07:48:25.229Z,102242.56
2022-08-09T07:51:09.396Z,102256.56
2022-08-09T07:54:05.090Z,102251.31
2022-08-09T07:56:45.110Z,102255.22
2022-08-09T07:59:34.756Z,102244.91
2022-08-09T08:02:05.080Z,102251.41
2022-08-09T08:04:32.716Z,102252.53
2022-08-09T08:07:15.598Z,102260.50
2022-08-09T08:10:08.219Z,102263.78
2022-08-09T08:12:43.547Z,102263.88
2022-08-09T08:15:17.292Z,102269.44
2022-08-09T08:17:57.943Z,102265.19
2022-08-09T08:20:33.513Z,102270.06
2022-08-09T08:23:16.640Z,102268.81
2022-08-09T08:25:50.170Z,102260.41
2022-08-09T08:28:32.203Z,102257.63
2022-08-09T08:31:10.403Z,102269.19
2022-08-09T08:33:53.698Z,102262.91
2022-08-09T08:36:29.036Z,102269.72
2022-08-09T08:38:59.918Z,102270.34
2022-08-09T08:41:50.486Z,102267.59
2022-08-09T08:44:26.934Z,102269.28
2022-08-09T08:47:04.414Z,102276.53
2022-08-09T08:49:48.439Z,102273.13
2022-08-09T08:55:15.325Z,102275.25
2022-08-09T08:57:57.508Z,102272.06
2022-08-09T09:00:34.288Z,102274.22
2022-08-09T09:03:08.602Z,102272.06
2022-08-09T09:06:03.252Z,102281.56
2022-08-09T09:08:43.075Z,102283.88
2022-08-09T09:11:17.863Z,102291.41
2022-08-09T09:13:58.448Z,102292.91
2022-08-09T09:16:34.550Z,102289.81
2022-08-09T09:19:37.190Z,102291.50
2022-08-09T09:22:15.861Z,102299.31
2022-08-09T09:26:02.559Z,102292.06
2022-08-09T09:28:03.826Z,102295.84
2022-08-09T09:30:41.347Z,102299.69
2022-08-09T09:33:16.471Z,102303.06
2022-08-09T09:36:19.808Z,102300.94
2022-08-09T09:38:58.067Z,102304.22
2022-08-09T09:41:26.361Z,102301.59
2022-08-09T09:44:12.100Z,102296.06
2022-08-09T09:46:51.642Z,102300.25
2022-08-09T09:49:50.043Z,102300.41
2022-08-09T09:52:33.401Z,102300.81
2022-08-09T09:55:23.927Z,102293.47
2022-08-09T09:58:18.101Z,102296.41
2022-08-09T10:00:58.791Z,102289.06
2022-08-09T10:03:57.631Z,102290.25
2022-08-09T10:06:43.486Z,102285.31
2022-08-09T10:09:22.152Z,102296.81
2022-08-09T10:12:11.838Z,102299.22
2022-08-09T10:14:48.258Z,102299.88
2022-08-09T10:17:51.307Z,102299.56
2022-08-09T10:20:27.272Z,102299.84
2022-08-09T10:23:17.370Z,102297.06
2022-08-09T10:26:07.448Z,102304.72
2022-08-09T10:28:35.442Z,102296.03
2022-08-09T10:34:09.122Z,102291.72
2022-08-09T10:36:40.233Z,102295.69
2022-08-09T10:39:15.651Z,102294.63
2022-08-09T10:41:46.263Z,102293.34
2022-08-09T10:44:21.735Z,102297.22
2022-08-09T10:48:13.337Z,102297.63
2022-08-09T10:51:06.813Z,102298.03
2022-08-09T10:53:54.828Z,102300.84
2022-08-09T10:56:35.526Z,102291.84
2022-08-09T10:59:23.139Z,102296.66
2022-08-09T11:03:15.493Z,102287.81
2022-08-09T11:04:55.648Z,102293.03
2022-08-09T11:07:57.564Z,102286.91
2022-08-09T11:10:47.032Z,102292.22
2022-08-09T11:13:49.003Z,102285.97
2022-08-09T11:16:38.183Z,102283.16
2022-08-09T11:19:10.455Z,102279.63
2022-08-09T11:22:16.751Z,102268.38
2022-08-09T11:25:19.345Z,102274.66
2022-08-09T11:28:05.224Z,102272.38
2022-08-09T11:30:37.998Z,102276.81
2022-08-09T11:33:36.374Z,102277.72
2022-08-09T11:36:03.487Z,102283.97
2022-08-09T11:38:41.363Z,102276.75
2022-08-09T11:41:14.213Z,102273.44
2022-08-09T11:43:55.341Z,102276.19
2022-08-09T11:46:26.616Z,102275.38
2022-08-09T11:49:05.402Z,102276.13
2022-08-09T11:53:02.585Z,102269.50
2022-08-09T11:55:52.385Z,102271.00
2022-08-09T11:58:33.077Z,102273.56
2022-08-09T12:01:15.527Z,102256.28
2022-08-09T12:04:05.067Z,102263.59
2022-08-09T12:06:39.090Z,102259.88
2022-08-09T12:09:33.651Z,102257.25
2022-08-09T12:12:12.351Z,102256.56
2022-08-09T12:15:07.374Z,102262.03
2022-08-09T12:17:44.593Z,102270.78
2022-08-09T12:20:22.886Z,102271.03
2022-08-09T12:22:59.553Z,102262.50
2022-08-09T12:25:37.372Z,102265.97
2022-08-09T12:29:00.307Z,102267.84
2022-08-09T12:31:58.009Z,102267.59
2022-08-09T12:34:13.846Z,102266.78
2022-08-09T12:36:59.173Z,102265.34
2022-08-09T12:39:38.599Z,102258.94
2022-08-09T12:42:08.845Z,102261.19
2022-08-09T12:44:40.000Z,102260.47
2022-08-09T12:47:13.177Z,102257.13
2022-08-09T12:49:52.855Z,102255.25
2022-08-09T12:52:19.902Z,102249.19
2022-08-09T12:56:15.245Z,102239.66
2022-08-09T12:58:27.489Z,102247.00
2022-08-09T13:00:56.541Z,102244.28
2022-08-09T13:03:54.116Z,102235.72
2022-08-09T13:06:44.370Z,102238.56
2022-08-09T13:09:21.562Z,102247.03
2022-08-09T13:12:01.517Z,102237.09
2022-08-09T13:14:41.637Z,102241.50
2022-08-09T13:17:43.843Z,102237.41
2022-08-09T13:20:14.341Z,102237.38
2022-08-09T13:23:05.415Z,102242.31
2022-08-09T13:25:54.616Z,102243.56
2022-08-09T13:28:34.169Z,102235.19
2022-08-09T13:32:19.510Z,102234.63
2022-08-09T13:34:04.450Z,102239.75
2022-08-09T13:36:40.280Z,102238.78
2022-08-09T13:41:17.676Z,102242.53
2022-08-09T13:42:12.437Z,102242.41
2022-08-09T13:44:43.158Z,102239.59
2022-08-09T13:47:26.686Z,102238.81
2022-08-09T13:50:30.407Z,102238.84
2022-08-09T13:52:58.788Z,102238.78
2022-08-09T13:55:29.136Z,102242.28
2022-08-09T13:57:59.721Z,102245.56
2022-08-09T14:00:29.477Z,102242.84
2022-08-09T14:03:03.016Z,102241.06
2022-08-09T14:05:57.201Z,102248.19
2022-08-09T14:08:30.717Z,102239.97
2022-08-09T14:10:59.574Z,102245.34
2022-08-09T14:14:22.923Z,102242.06
2022-08-09T14:16:28.268Z,102251.97
2022-08-09T14:18:58.279Z,102243.13
2022-08-09T14:21:29.671Z,102249.19
2022-08-09T14:24:09.974Z,102250.94
2022-08-09T14:26:55.801Z,102257.94
2022-08-09T14:30:03.904Z,102259.56
2022-08-09T14:32:16.424Z,102259.88
2022-08-09T14:34:55.646Z,102266.03
2022-08-09T14:37:28.140Z,102270.06
2022-08-09T14:39:55.582Z,102269.16
2022-08-09T14:42:30.332Z,102264.28
2022-08-09T14:46:56.090Z,102264.91
2022-08-09T14:47:57.995Z,102266.94
2022-08-09T14:50:37.026Z,102260.03
2022-08-09T14:53:13.675Z,102269.66
2022-08-09T14:55:50.138Z,102265.00
2022-08-09T14:58:18.525Z,102266.25
2022-08-09T15:00:47.944Z,102264.91
2022-08-09T15:03:16.740Z,102263.97
2022-08-09T15:05:52.501Z,102262.56
2022-08-09T15:08:24.416Z,102268.69
2022-08-09T15:11:01.284Z,102270.81
2022-08-09T15:13:56.069Z,102264.63
2022-08-09T15:16:19.724Z,102261.28
2022-08-09T15:18:52.431Z,102268.03
2022-08-09T15:21:57.884Z,102262.41
2022-08-09T15:24:12.742Z,102262.63
2022-08-09T15:26:45.320Z,102259.06
2022-08-09T15:30:57.628Z,102265.72
2022-08-09T15:32:02.547Z,102259.28
2022-08-09T15:34:34.248Z,102249.75
2022-08-09T15:37:24.225Z,102257.25
2022-08-09T15:40:20.120Z,102246.41
2022-08-09T15:42:50.203Z,102244.94
2022-08-09T15:45:21.646Z,102237.88
2022-08-09T15:48:05.172Z,102241.84
2022-08-09T15:50:39.082Z,102236.50
2022-08-09T15:54:02.839Z,102229.13
2022-08-09T15:56:11.066Z,102230.19
2022-08-09T15:58:40.525Z,102224.25
2022-08-09T16:01:08.258Z,102227.44
2022-08-09T16:03:41.689Z,102226.56
2022-08-09T16:06:27.335Z,102226.38
2022-08-09T16:09:00.884Z,102223.94
2022-08-09T16:11:30.995Z,102226.75
2022-08-09T16:14:05.902Z,102226.09
2022-08-09T16:16:37.354Z,102223.31
2022-08-09T16:19:13.480Z,102232.81
2022-08-09T16:21:48.692Z,102218.06
2022-08-09T16:24:30.280Z,102221.44
2022-08-09T16:27:01.081Z,102218.44
2022-08-09T16:29:36.708Z,102216.75
2022-08-09T16:32:17.936Z,102207.28
2022-08-09T16:34:56.455Z,102208.59
2022-08-09T16:37:55.441Z,102209.16
2022-08-09T16:40:30.019Z,102209.56
2022-08-09T16:43:04.459Z,102207.69
2022-08-09T16:45:31.808Z,102204.50
2022-08-09T16:48:41.704Z,102200.94
2022-08-09T16:50:58.837Z,102206.47
2022-08-09T16:53:28.364Z,102209.78
2022-08-09T16:56:07.591Z,102205.16
2022-08-09T16:58:39.684Z,102204.22
2022-08-09T17:01:08.150Z,102204.41
2022-08-09T17:03:36.349Z,102200.09
2022-08-09T17:06:28.336Z,102199.25
2022-08-09T17:09:02.816Z,102201.63
2022-08-09T17:11:40.938Z,102198.69
2022-08-09T17:14:26.017Z,102190.38
2022-08-09T17:17:02.329Z,102198.56
2022-08-09T17:19:46.503Z,102197.50
2022-08-09T17:22:15.054Z,102198.91
2022-08-09T17:24:47.970Z,102200.31
2022-08-09T17:27:22.247Z,102197.94
2022-08-09T17:29:51.719Z,102201.34
2022-08-09T17:32:26.605Z,102198.13
2022-08-09T17:35:11.322Z,102198.84
2022-08-09T17:38:11.868Z,102206.53
2022-08-09T17:40:34.822Z,102201.38
2022-08-09T17:43:32.908Z,102199.72
2022-08-09T17:46:03.463Z,102203.19
2022-08-09T17:48:51.909Z,102197.28
2022-08-09T17:53:56.487Z,102196.22
2022-08-09T17:56:35.512Z,102203.94
2022-08-09T17:59:09.146Z,102197.28
2022-08-09T18:01:57.898Z,102191.34
2022-08-09T18:04:29.871Z,102202.16
2022-08-09T18:07:07.527Z,102193.97
2022-08-09T18:09:41.386Z,102191.25
2022-08-09T18:12:19.496Z,102197.25
2022-08-09T18:14:54.480Z,102185.16
2022-08-09T18:18:02.601Z,102191.31
2022-08-09T18:20:55.073Z,102184.16
2022-08-09T18:24:08.768Z,102180.44
2022-08-09T18:25:59.600Z,102180.81
2022-08-09T18:30:39.092Z,102177.38
2022-08-09T18:31:19.249Z,102181.66
2022-08-09T18:34:01.578Z,102177.06
2022-08-09T18:36:32.494Z,102175.53
2022-08-09T18:39:06.959Z,102167.81
2022-08-09T18:41:56.371Z,102164.16
2022-08-09T18:44:25.514Z,102166.97
2022-08-09T18:47:06.316Z,102171.84
2022-08-09T18:49:43.426Z,102174.97
2022-08-09T18:52:24.571Z,102177.91
2022-08-09T18:54:53.396Z,102178.28
2022-08-09T18:57:23.134Z,102176.59
2022-08-09T18:59:55.390Z,102176.44
2022-08-09T19:02:32.065Z,102176.69
2022-08-09T19:05:20.507Z,102171.66
2022-08-09T19:08:04.118Z,102169.44
2022-08-09T19:10:40.274Z,102173.69
2022-08-09T19:13:20.260Z,102177.63
2022-08-09T19:15:56.511Z,102178.25
2022-08-09T19:18:36.415Z,102188.03
2022-08-09T19:21:09.242Z,102183.63
2022-08-09T19:24:33.117Z,102187.13
2022-08-09T19:26:31.201Z,102193.91
2022-08-09T19:29:03.185Z,102198.53
2022-08-09T19:31:45.400Z,102204.13
2022-08-09T19:34:22.258Z,102204.31
2022-08-09T19:36:53.908Z,102211.78
2022-08-09T19:39:42.900Z,102209.09
2022-08-09T19:42:14.428Z,102220.63
2022-08-09T19:44:50.948Z,102206.63
2022-08-09T19:47:23.249Z,102210.09
2022-08-09T19:50:08.174Z,102218.78
2022-08-09T19:52:51.536Z,102221.94
2022-08-09T19:55:30.823Z,102221.50
2022-08-09T19:58:16.159Z,102218.34
2022-08-09T20:00:47.565Z,102215.22
2022-08-09T20:04:17.767Z,102218.50
2022-08-09T20:06:05.108Z,102211.91
2022-08-09T20:08:57.015Z,102210.34
2022-08-09T20:11:42.782Z,102218.75
2022-08-09T20:14:15.061Z,102216.31
2022-08-09T20:16:53.215Z,102213.75
2022-08-09T20:19:48.423Z,102206.03
2022-08-09T20:22:16.861Z,102217.47
2022-08-09T20:24:53.429Z,102216.88
2022-08-09T20:27:21.690Z,102211.88
2022-08-09T20:29:48.977Z,102214.88
2022-08-09T20:32:30.131Z,102222.13
2022-08-09T20:35:00.112Z,102218.72
2022-08-09T20:37:37.738Z,102217.41
2022-08-09T20:40:26.423Z,102216.69
2022-08-09T20:42:59.824Z,102223.13
2022-08-09T20:46:01.158Z,102219.69
2022-08-09T20:48:30.898Z,102218.38
2022-08-09T20:51:00.875Z,102223.34
2022-08-09T20:53:36.822Z,102224.06
2022-08-09T20:56:20.397Z,102217.06
2022-08-09T20:58:59.007Z,102218.78
2022-08-09T21:01:34.321Z,102223.22
2022-08-09T21:05:53.877Z,102215.09
2022-08-09T21:07:11.328Z,102226.91
2022-08-09T21:09:45.788Z,102221.66
2022-08-09T21:15:12.860Z,102215.91
2022-08-09T21:18:20.878Z,102217.16
2022-08-09T21:20:30.078Z,102212.25
2022-08-09T21:22:58.300Z,102225.69
2022-08-09T21:25:56.019Z,102214.56
2022-08-09T21:28:36.113Z,102215.75
2022-08-09T21:31:16.704Z,102217.63
2022-08-09T21:33:51.394Z,102225.31
2022-08-09T21:36:23.473Z,102218.28
2022-08-09T21:38:57.226Z,102222.09
2022-08-09T21:42:03.813Z,102217.81
2022-08-09T21:44:34.109Z,102219.09
2022-08-09T21:47:09.190Z,102214.22
2022-08-09T21:49:39.987Z,102217.03
2022-08-09T21:52:20.938Z,102219.75
2022-08-09T21:55:03.535Z,102217.91
2022-08-09T21:57:38.413Z,102221.50
2022-08-09T22:00:33.494Z,102223.19
2022-08-09T22:03:19.804Z,102221.34
2022-08-09T22:05:55.461Z,102222.91
2022-08-09T22:08:26.026Z,102222.06
2022-08-09T22:11:50.437Z,102216.50
2022-08-09T22:13:43.608Z,102220.59
2022-08-09T22:16:12.060Z,102227.03
2022-08-09T22:18:53.101Z,102227.28
2022-08-09T22:21:45.050Z,102220.88
2022-08-09T22:24:21.043Z,102213.28
2022-08-09T22:26:51.986Z,102219.84
2022-08-09T22:29:26.784Z,102219.84
2022-08-09T22:31:58.853Z,102216.41
2022-08-09T22:34:27.103Z,102218.13
2022-08-09T22:36:59.227Z,102210.00
2022-08-09T22:39:57.198Z,102216.16
2022-08-09T22:42:21.166Z,102209.13
2022-08-09T22:45:02.266Z,102211.44
2022-08-09T22:48:12.119Z,102202.59
2022-08-09T22:50:31.950Z,102210.00
2022-08-09T22:53:03.877Z,102219.97
2022-08-09T22:56:06.220Z,102206.81
2022-08-09T22:58:32.910Z,102211.19
2022-08-09T23:01:03.042Z,102209.88
2022-08-09T23:04:05.469Z,102213.44
2022-08-09T23:06:34.792Z,102210.75
2022-08-09T23:09:06.412Z,102208.31
2022-08-09T23:11:33.439Z,102213.84
2022-08-09T23:14:00.475Z,102219.16
2022-08-09T23:16:27.140Z,102218.28
2022-08-09T23:18:53.809Z,102212.72
2022-08-09T23:21:25.228Z,102210.16
2022-08-09T23:24:05.722Z,102200.41
2022-08-09T23:26:35.014Z,102206.84
2022-08-09T23:29:01.693Z,102211.41
2022-08-09T23:31:28.418Z,102202.56
2022-08-09T23:33:55.083Z,102212.38
2022-08-09T23:36:21.825Z,102202.09
2022-08-09T23:38:49.531Z,102211.34
2022-08-09T23:41:28.318Z,102208.78
2022-08-09T23:44:01.678Z,102206.66
2022-08-09T23:46:31.620Z,102201.22
2022-08-09T23:49:00.178Z,102206.06
2022-08-09T23:51:30.481Z,102205.47
2022-08-09T23:54:02.465Z,102209.91
2022-08-09T23:56:53.147Z,102205.63
2022-08-09T23:59:21.295Z,102207.59
